createdAt,value
2023-04-30T00:01:31.942Z,81.41
2023-04-30T00:03:59.091Z,80.68
2023-04-30T00:06:28.234Z,80.90
2023-04-30T00:08:55.546Z,81.34
2023-04-30T00:11:22.510Z,81.57
2023-04-30T00:13:49.873Z,81.63
2023-04-30T00:16:16.815Z,81.75
2023-04-30T00:18:43.834Z,81.80
2023-04-30T00:21:10.678Z,81.51
2023-04-30T00:23:37.579Z,81.10
2023-04-30T00:26:04.603Z,81.43
2023-04-30T00:28:31.613Z,81.89
2023-04-30T00:30:58.437Z,81.50
2023-04-30T00:33:25.476Z,82.15
2023-04-30T00:35:52.314Z,81.66
2023-04-30T00:38:19.196Z,81.59
2023-04-30T00:40:47.109Z,82.42
2023-04-30T00:43:14.014Z,82.72
2023-04-30T00:45:40.910Z,82.96
2023-04-30T00:48:07.996Z,83.15
2023-04-30T00:50:36.932Z,82.39
2023-04-30T00:53:04.109Z,82.64
2023-04-30T00:55:31.179Z,82.99
2023-04-30T00:58:00.149Z,83.00
2023-04-30T01:00:27.809Z,83.32
2023-04-30T01:02:56.167Z,83.36
2023-04-30T01:05:23.382Z,82.68
2023-04-30T01:07:51.015Z,83.10
2023-04-30T01:10:19.808Z,83.30
2023-04-30T01:12:49.867Z,82.85
2023-04-30T01:15:27.734Z,83.62
2023-04-30T01:18:09.537Z,83.88
2023-04-30T01:20:41.655Z,83.71
2023-04-30T01:23:34.158Z,84.12
2023-04-30T01:26:11.163Z,83.75
2023-04-30T01:28:39.593Z,83.32
2023-04-30T01:31:19.023Z,84.03
2023-04-30T01:33:46.107Z,84.31
2023-04-30T01:36:41.674Z,85.05
2023-04-30T01:39:14.646Z,83.76
2023-04-30T01:42:12.177Z,84.34
2023-04-30T01:45:09.613Z,84.68
2023-04-30T01:47:48.995Z,84.72
2023-04-30T01:50:25.101Z,83.83
2023-04-30T01:52:55.714Z,84.89
2023-04-30T01:55:37.342Z,85.15
2023-04-30T01:58:12.577Z,85.16
2023-04-30T02:00:39.564Z,85.21
2023-04-30T02:03:07.102Z,85.46
2023-04-30T02:05:34.636Z,85.57
2023-04-30T02:08:01.516Z,85.47
2023-04-30T02:10:29.270Z,85.76
2023-04-30T02:12:56.194Z,84.96
2023-04-30T02:15:23.131Z,84.76
2023-04-30T02:17:50.070Z,85.52
2023-04-30T02:20:17.224Z,84.92
2023-04-30T02:22:44.130Z,84.85
2023-04-30T02:25:11.181Z,84.71
2023-04-30T02:27:38.785Z,83.90
2023-04-30T02:30:08.780Z,84.37
2023-04-30T02:32:36.014Z,84.21
2023-04-30T02:35:03.175Z,85.00
2023-04-30T02:37:30.501Z,84.18
2023-04-30T02:39:57.896Z,84.69
2023-04-30T02:42:25.787Z,84.75
2023-04-30T02:44:52.727Z,83.59
2023-04-30T02:47:19.666Z,84.02
2023-04-30T02:49:46.586Z,84.69
2023-04-30T02:52:13.472Z,83.87
2023-04-30T02:54:40.325Z,84.30
2023-04-30T02:57:07.257Z,84.24
2023-04-30T02:59:34.156Z,83.18
2023-04-30T03:02:01.004Z,83.32
2023-04-30T03:04:27.926Z,83.09
2023-04-30T03:06:54.874Z,83.77
2023-04-30T03:09:21.768Z,82.67
2023-04-30T03:11:48.670Z,82.78
2023-04-30T03:14:15.582Z,82.64
2023-04-30T03:16:42.584Z,82.10
2023-04-30T03:19:09.587Z,81.63
2023-04-30T03:21:36.479Z,81.61
2023-04-30T03:24:03.486Z,81.15
2023-04-30T03:26:31.427Z,82.11
2023-04-30T03:28:58.324Z,82.22
2023-04-30T03:31:25.189Z,82.06
2023-04-30T03:33:52.115Z,82.01
2023-04-30T03:36:18.971Z,81.72
2023-04-30T03:38:45.904Z,81.77
2023-04-30T03:41:13.221Z,81.44
2023-04-30T03:43:40.112Z,81.55
2023-04-30T03:46:07.097Z,81.57
2023-04-30T03:48:34.098Z,80.60
2023-04-30T03:51:00.939Z,81.17
2023-04-30T03:53:27.907Z,81.14
2023-04-30T03:55:55.569Z,81.17
2023-04-30T03:58:22.812Z,81.21
2023-04-30T04:00:50.151Z,80.34
2023-04-30T04:03:17.679Z,80.03
2023-04-30T04:05:44.840Z,79.85
2023-04-30T04:08:12.357Z,79.65
2023-04-30T04:10:39.754Z,79.74
2023-04-30T04:13:07.122Z,79.87
2023-04-30T04:15:34.976Z,79.40
2023-04-30T04:18:02.834Z,79.73
2023-04-30T04:20:30.151Z,78.72
2023-04-30T04:22:57.471Z,78.36
2023-04-30T04:25:24.649Z,78.26
2023-04-30T04:27:52.122Z,77.60
2023-04-30T04:30:19.132Z,77.31
2023-04-30T04:32:47.438Z,77.31
2023-04-30T04:35:15.706Z,77.49
2023-04-30T04:37:43.111Z,77.38
2023-04-30T04:40:11.954Z,76.54
2023-04-30T04:42:40.077Z,75.71
2023-04-30T04:45:07.806Z,75.87
2023-04-30T04:47:35.120Z,75.75
2023-04-30T04:50:02.313Z,75.68
2023-04-30T04:52:29.716Z,75.29
2023-04-30T04:54:56.685Z,74.10
2023-04-30T04:57:23.640Z,73.66
2023-04-30T04:59:50.583Z,73.38
2023-04-30T05:02:17.478Z,72.55
2023-04-30T05:04:44.648Z,71.34
2023-04-30T05:07:11.521Z,70.81
2023-04-30T05:09:38.408Z,69.50
2023-04-30T05:12:05.718Z,69.92
2023-04-30T05:14:32.633Z,69.64
2023-04-30T05:16:59.474Z,67.22
2023-04-30T05:19:26.374Z,68.48
2023-04-30T05:21:53.189Z,68.01
2023-04-30T05:24:20.276Z,67.27
2023-04-30T05:26:47.121Z,66.54
2023-04-30T05:29:13.976Z,66.11
2023-04-30T05:31:41.023Z,67.43
2023-04-30T05:34:07.953Z,67.54
2023-04-30T05:36:34.855Z,67.09
2023-04-30T05:39:01.800Z,66.33
2023-04-30T05:41:28.707Z,68.77
2023-04-30T05:43:55.551Z,67.38
2023-04-30T05:46:22.634Z,67.99
2023-04-30T05:48:49.653Z,65.76
2023-04-30T05:51:16.562Z,66.16
2023-04-30T05:53:43.476Z,64.53
2023-04-30T05:56:10.342Z,64.69
2023-04-30T05:58:37.220Z,65.30
2023-04-30T06:01:04.387Z,64.29
2023-04-30T06:03:31.739Z,63.26
2023-04-30T06:05:58.680Z,62.31
2023-04-30T06:08:25.531Z,62.41
2023-04-30T06:10:52.510Z,60.60
2023-04-30T06:13:19.406Z,60.81
2023-04-30T06:15:46.392Z,61.85
2023-04-30T06:18:13.516Z,61.71
2023-04-30T06:20:40.916Z,61.60
2023-04-30T06:23:07.891Z,61.02
2023-04-30T06:25:34.734Z,60.92
2023-04-30T06:28:01.607Z,60.62
2023-04-30T06:30:28.569Z,62.13
2023-04-30T06:32:55.593Z,61.53
2023-04-30T06:35:23.507Z,60.56
2023-04-30T06:37:50.397Z,60.19
2023-04-30T06:40:19.718Z,60.83
2023-04-30T06:42:47.572Z,61.72
2023-04-30T06:45:14.974Z,60.17
2023-04-30T06:47:41.924Z,59.98
2023-04-30T06:50:09.486Z,59.70
2023-04-30T06:52:36.352Z,60.27
2023-04-30T06:55:03.564Z,59.39
2023-04-30T06:57:30.625Z,58.00
2023-04-30T06:59:57.732Z,58.79
2023-04-30T07:02:24.770Z,59.87
2023-04-30T07:04:51.821Z,61.05
2023-04-30T07:07:18.682Z,63.49
2023-04-30T07:09:45.662Z,62.57
2023-04-30T07:12:12.560Z,62.07
2023-04-30T07:14:39.633Z,63.52
2023-04-30T07:17:06.594Z,62.78
2023-04-30T07:19:33.597Z,61.39
2023-04-30T07:22:15.752Z,60.46
2023-04-30T07:24:45.804Z,61.70
2023-04-30T07:27:12.831Z,61.51
2023-04-30T07:29:44.952Z,60.99
2023-04-30T07:32:17.426Z,62.81
2023-04-30T07:34:44.393Z,61.43
2023-04-30T07:37:12.399Z,61.77
2023-04-30T07:39:42.154Z,62.01
2023-04-30T07:42:09.085Z,61.26
2023-04-30T07:44:38.073Z,61.96
2023-04-30T07:47:08.212Z,61.36
2023-04-30T07:49:35.381Z,61.99
2023-04-30T07:52:08.066Z,62.37
2023-04-30T07:54:40.848Z,62.97
2023-04-30T07:57:08.667Z,62.59
2023-04-30T07:59:35.568Z,62.86
2023-04-30T08:02:04.502Z,63.38
2023-04-30T08:04:31.716Z,63.14
2023-04-30T08:07:04.762Z,63.48
2023-04-30T08:09:31.782Z,63.82
2023-04-30T08:11:58.751Z,62.75
2023-04-30T08:14:25.958Z,61.59
2023-04-30T08:16:52.988Z,61.62
2023-04-30T08:19:19.938Z,61.75
2023-04-30T08:21:46.930Z,61.94
2023-04-30T08:24:25.306Z,60.86
2023-04-30T08:26:53.596Z,60.10
2023-04-30T08:29:26.195Z,60.10
2023-04-30T08:31:53.250Z,59.85
2023-04-30T08:34:20.228Z,60.03
2023-04-30T08:39:40.566Z,58.77
2023-04-30T08:42:09.842Z,58.03
2023-04-30T08:44:37.632Z,58.75
2023-04-30T08:47:04.809Z,58.04
2023-04-30T08:49:35.097Z,56.98
2023-04-30T08:52:03.048Z,58.01
2023-04-30T08:54:31.821Z,57.68
2023-04-30T08:57:01.968Z,57.52
2023-04-30T08:59:29.002Z,56.63
2023-04-30T09:02:02.639Z,55.58
2023-04-30T09:04:29.685Z,56.15
2023-04-30T09:06:56.930Z,56.42
2023-04-30T09:09:29.349Z,55.51
2023-04-30T09:12:15.251Z,56.89
2023-04-30T09:15:05.201Z,57.18
2023-04-30T09:17:33.448Z,57.24
2023-04-30T09:20:13.956Z,56.71
2023-04-30T09:22:42.568Z,58.21
2023-04-30T09:25:10.536Z,57.76
2023-04-30T09:27:37.569Z,57.27
2023-04-30T09:30:04.832Z,57.09
2023-04-30T09:32:31.813Z,55.10
2023-04-30T09:35:00.834Z,56.09
2023-04-30T09:37:38.409Z,55.59
2023-04-30T09:40:06.214Z,56.50
2023-04-30T09:42:34.793Z,56.80
2023-04-30T09:45:20.614Z,57.49
2023-04-30T09:47:47.601Z,57.17
2023-04-30T09:50:14.531Z,55.95
2023-04-30T09:52:41.871Z,57.19
2023-04-30T09:55:09.525Z,57.23
2023-04-30T09:57:42.749Z,58.42
2023-04-30T10:00:11.254Z,58.55
2023-04-30T10:02:57.538Z,58.44
2023-04-30T10:05:26.693Z,58.42
2023-04-30T10:07:53.616Z,58.91
2023-04-30T10:10:22.234Z,59.00
2023-04-30T10:13:06.513Z,59.91
2023-04-30T10:15:51.821Z,58.34
2023-04-30T10:18:23.520Z,56.77
2023-04-30T10:21:15.193Z,57.13
2023-04-30T10:23:42.646Z,56.18
2023-04-30T10:26:12.718Z,55.16
2023-04-30T10:28:40.059Z,56.46
2023-04-30T10:31:08.707Z,56.54
2023-04-30T10:33:51.540Z,56.82
2023-04-30T10:36:29.683Z,56.82
2023-04-30T10:38:58.581Z,56.85
2023-04-30T10:41:26.949Z,55.44
2023-04-30T10:43:57.392Z,56.10
2023-04-30T10:46:24.878Z,56.32
2023-04-30T10:48:58.090Z,56.56
2023-04-30T10:51:45.146Z,57.12
2023-04-30T10:54:15.905Z,56.59
2023-04-30T10:57:03.011Z,58.00
2023-04-30T10:59:48.247Z,58.02
2023-04-30T11:02:18.474Z,57.88
2023-04-30T11:05:07.019Z,58.02
2023-04-30T11:07:34.301Z,56.29
2023-04-30T11:10:02.580Z,57.10
2023-04-30T11:12:30.164Z,57.07
2023-04-30T11:15:12.603Z,57.57
2023-04-30T11:17:40.237Z,56.59
2023-04-30T11:20:12.407Z,55.98
2023-04-30T11:22:39.559Z,56.54
2023-04-30T11:25:10.998Z,56.21
2023-04-30T11:27:42.470Z,56.44
2023-04-30T11:30:15.647Z,56.01
2023-04-30T11:32:48.123Z,56.68
2023-04-30T11:35:18.639Z,57.73
2023-04-30T11:37:45.760Z,58.04
2023-04-30T11:40:14.561Z,56.63
2023-04-30T11:42:45.429Z,57.15
2023-04-30T11:45:15.733Z,57.32
2023-04-30T11:47:50.893Z,57.44
2023-04-30T11:50:22.956Z,58.42
2023-04-30T11:52:51.805Z,58.38
2023-04-30T11:55:20.433Z,58.52
2023-04-30T11:57:50.049Z,57.86
2023-04-30T12:00:36.083Z,58.40
2023-04-30T12:03:03.862Z,58.57
2023-04-30T12:05:31.186Z,58.37
2023-04-30T12:08:01.034Z,58.16
2023-04-30T12:10:28.086Z,58.37
2023-04-30T12:12:54.996Z,58.49
2023-04-30T12:15:23.992Z,58.30
2023-04-30T12:17:50.978Z,58.66
2023-04-30T12:20:18.022Z,58.69
2023-04-30T12:22:45.227Z,59.00
2023-04-30T12:25:14.854Z,58.77
2023-04-30T12:27:48.864Z,59.41
2023-04-30T12:30:19.267Z,58.32
2023-04-30T12:32:49.959Z,58.87
2023-04-30T12:35:21.551Z,58.84
2023-04-30T12:37:53.151Z,58.79
2023-04-30T12:40:21.885Z,58.94
2023-04-30T12:42:49.012Z,59.10
2023-04-30T12:45:51.251Z,59.24
2023-04-30T12:48:23.360Z,59.30
2023-04-30T12:51:14.848Z,59.64
2023-04-30T12:53:46.192Z,60.27
2023-04-30T12:56:19.773Z,60.42
2023-04-30T12:58:48.038Z,61.16
2023-04-30T13:01:23.258Z,61.46
2023-04-30T13:03:53.413Z,61.47
2023-04-30T13:06:24.013Z,61.24
2023-04-30T13:08:58.366Z,61.28
2023-04-30T13:11:26.248Z,61.35
2023-04-30T13:13:56.062Z,61.86
2023-04-30T13:16:23.694Z,60.96
2023-04-30T13:18:50.758Z,62.46
2023-04-30T13:21:18.284Z,61.86
2023-04-30T13:23:52.751Z,61.79
2023-04-30T13:26:21.929Z,61.76
2023-04-30T13:28:48.849Z,61.51
2023-04-30T13:31:34.679Z,60.40
2023-04-30T13:34:01.773Z,60.50
2023-04-30T13:36:28.694Z,61.26
2023-04-30T13:38:55.715Z,60.66
2023-04-30T13:41:22.544Z,60.84
2023-04-30T13:43:49.762Z,60.69
2023-04-30T13:46:16.783Z,60.66
2023-04-30T13:48:43.862Z,60.96
2023-04-30T13:51:10.720Z,60.71
2023-04-30T13:53:37.778Z,61.30
2023-04-30T13:56:05.249Z,61.49
2023-04-30T13:58:32.538Z,61.65
2023-04-30T14:00:59.682Z,61.62
2023-04-30T14:03:45.504Z,62.03
2023-04-30T14:06:12.754Z,61.48
2023-04-30T14:08:39.581Z,61.58
2023-04-30T14:11:06.532Z,62.36
2023-04-30T14:13:51.750Z,61.62
2023-04-30T14:16:37.363Z,61.50
2023-04-30T14:19:04.373Z,61.36
2023-04-30T14:21:31.227Z,61.18
2023-04-30T14:23:58.148Z,61.52
2023-04-30T14:26:30.873Z,61.56
2023-04-30T14:29:16.707Z,61.98
2023-04-30T14:31:43.930Z,62.34
2023-04-30T14:34:10.786Z,61.70
2023-04-30T14:36:37.832Z,61.72
2023-04-30T14:39:04.948Z,62.31
2023-04-30T14:41:36.199Z,61.59
2023-04-30T14:44:21.960Z,61.39
2023-04-30T14:47:07.695Z,60.76
2023-04-30T14:49:34.655Z,60.19
2023-04-30T14:52:01.516Z,60.52
2023-04-30T14:54:29.880Z,60.85
2023-04-30T14:56:56.831Z,60.91
2023-04-30T14:59:23.734Z,62.43
2023-04-30T15:02:09.671Z,61.80
2023-04-30T15:04:36.970Z,61.18
2023-04-30T15:07:04.153Z,60.14
2023-04-30T15:09:31.122Z,59.90
2023-04-30T15:11:58.029Z,59.73
2023-04-30T15:14:25.000Z,60.76
2023-04-30T15:17:10.678Z,61.88
2023-04-30T15:19:40.489Z,61.16
2023-04-30T15:22:07.766Z,60.87
2023-04-30T15:24:34.771Z,61.08
2023-04-30T15:27:02.394Z,60.86
2023-04-30T15:29:29.293Z,61.11
2023-04-30T15:31:58.760Z,61.91
2023-04-30T15:34:29.959Z,61.48
2023-04-30T15:37:01.806Z,61.08
2023-04-30T15:39:29.062Z,61.98
2023-04-30T15:42:17.870Z,62.26
2023-04-30T15:44:44.804Z,61.59
2023-04-30T15:47:11.916Z,62.65
2023-04-30T15:49:42.173Z,62.46
2023-04-30T15:52:09.157Z,60.66
2023-04-30T15:55:13.456Z,60.34
2023-04-30T15:57:40.506Z,59.82
2023-04-30T16:00:07.998Z,60.65
2023-04-30T16:02:41.265Z,60.11
2023-04-30T16:05:09.015Z,60.20
2023-04-30T16:07:38.233Z,60.82
2023-04-30T16:10:05.940Z,60.69
2023-04-30T16:12:33.196Z,61.20
2023-04-30T16:15:01.478Z,61.26
2023-04-30T16:17:29.459Z,60.87
2023-04-30T16:19:56.707Z,60.26
2023-04-30T16:22:23.784Z,60.89
2023-04-30T16:24:53.991Z,60.17
2023-04-30T16:27:39.352Z,60.36
2023-04-30T16:30:07.134Z,60.76
2023-04-30T16:32:34.092Z,61.22
2023-04-30T16:35:01.100Z,60.59
2023-04-30T16:37:29.262Z,60.72
2023-04-30T16:39:59.826Z,60.77
2023-04-30T16:42:26.787Z,60.78
2023-04-30T16:44:53.743Z,60.68
2023-04-30T16:47:20.623Z,60.26
2023-04-30T16:49:48.869Z,59.99
2023-04-30T16:52:15.749Z,59.85
2023-04-30T16:54:42.584Z,60.43
2023-04-30T16:57:09.443Z,59.93
2023-04-30T16:59:36.318Z,60.39
2023-04-30T17:02:21.740Z,60.67
2023-04-30T17:04:48.782Z,61.04
2023-04-30T17:07:36.424Z,60.50
2023-04-30T17:10:03.979Z,60.66
2023-04-30T17:12:31.100Z,60.16
2023-04-30T17:14:58.049Z,60.40
2023-04-30T17:17:24.960Z,60.46
2023-04-30T17:19:51.963Z,60.87
2023-04-30T17:22:18.833Z,61.85
2023-04-30T17:24:48.767Z,61.73
2023-04-30T17:27:15.976Z,61.49
2023-04-30T17:29:42.911Z,62.12
2023-04-30T17:32:09.976Z,62.45
2023-04-30T17:34:37.831Z,62.70
2023-04-30T17:37:04.792Z,62.72
2023-04-30T17:39:31.781Z,62.79
2023-04-30T17:41:59.150Z,63.25
2023-04-30T17:44:26.235Z,63.60
2023-04-30T17:46:54.170Z,64.05
2023-04-30T17:49:21.114Z,64.51
2023-04-30T17:51:47.980Z,64.10
2023-04-30T17:54:14.952Z,64.36
2023-04-30T17:57:00.483Z,64.76
2023-04-30T17:59:28.891Z,65.16
2023-04-30T18:01:56.039Z,64.75
2023-04-30T18:04:23.229Z,65.86
2023-04-30T18:07:08.612Z,65.29
2023-04-30T18:09:35.546Z,65.77
2023-04-30T18:12:02.601Z,65.54
2023-04-30T18:14:29.665Z,65.49
2023-04-30T18:16:56.682Z,65.20
2023-04-30T18:19:23.791Z,66.34
2023-04-30T18:21:50.915Z,66.10
2023-04-30T18:24:17.952Z,66.11
2023-04-30T18:27:03.780Z,67.00
2023-04-30T18:29:31.110Z,68.18
2023-04-30T18:31:58.166Z,68.37
2023-04-30T18:34:25.234Z,68.37
2023-04-30T18:36:52.067Z,68.98
2023-04-30T18:39:19.108Z,68.61
2023-04-30T18:41:46.114Z,69.24
2023-04-30T18:44:13.108Z,68.82
2023-04-30T18:46:58.657Z,68.82
2023-04-30T18:49:25.991Z,69.75
2023-04-30T18:52:30.496Z,69.93
2023-04-30T18:54:57.564Z,69.55
2023-04-30T18:57:24.476Z,69.47
2023-04-30T18:59:54.865Z,69.65
2023-04-30T19:02:22.052Z,69.61
2023-04-30T19:04:54.949Z,69.33
2023-04-30T19:07:24.735Z,70.12
2023-04-30T19:09:51.837Z,69.97
2023-04-30T19:12:18.970Z,69.46
2023-04-30T19:14:48.097Z,70.07
2023-04-30T19:17:15.316Z,70.35
2023-04-30T19:19:45.264Z,70.87
2023-04-30T19:22:12.185Z,71.65
2023-04-30T19:24:42.185Z,71.06
2023-04-30T19:27:09.792Z,71.06
2023-04-30T19:29:36.988Z,70.83
2023-04-30T19:32:07.038Z,70.49
2023-04-30T19:34:36.717Z,70.86
2023-04-30T19:37:03.797Z,70.94
2023-04-30T19:39:31.878Z,71.22
2023-04-30T19:41:58.938Z,70.63
2023-04-30T19:44:29.313Z,70.54
2023-04-30T19:46:56.323Z,69.58
2023-04-30T19:49:24.661Z,70.41
2023-04-30T19:51:53.613Z,70.85
2023-04-30T19:54:23.209Z,71.45
2023-04-30T19:56:50.231Z,72.39
2023-04-30T19:59:17.163Z,71.95
2023-04-30T20:01:44.130Z,72.64
2023-04-30T20:04:11.242Z,73.28
2023-04-30T20:06:38.421Z,72.73
2023-04-30T20:09:05.752Z,73.07
2023-04-30T20:11:32.960Z,73.72
2023-04-30T20:13:59.877Z,73.50
2023-04-30T20:16:27.159Z,73.32
2023-04-30T20:18:54.190Z,73.94
2023-04-30T20:21:39.962Z,73.92
2023-04-30T20:24:07.028Z,73.84
2023-04-30T20:26:33.905Z,73.18
2023-04-30T20:29:00.962Z,73.25
2023-04-30T20:31:27.922Z,73.32
2023-04-30T20:33:54.904Z,73.39
2023-04-30T20:36:21.908Z,73.46
2023-04-30T20:38:51.135Z,73.78
2023-04-30T20:41:17.990Z,73.16
2023-04-30T20:43:45.018Z,73.66
2023-04-30T20:46:13.751Z,73.50
2023-04-30T20:48:45.493Z,73.75
2023-04-30T20:51:12.750Z,72.98
2023-04-30T20:53:39.762Z,73.87
2023-04-30T20:56:06.720Z,73.81
2023-04-30T20:58:33.840Z,73.80
2023-04-30T21:01:03.156Z,74.09
2023-04-30T21:03:30.140Z,74.04
2023-04-30T21:05:57.148Z,73.67
2023-04-30T21:08:24.013Z,73.82
2023-04-30T21:10:51.039Z,73.62
2023-04-30T21:13:18.083Z,73.68
2023-04-30T21:15:45.058Z,73.88
2023-04-30T21:18:12.130Z,72.93
2023-04-30T21:21:05.270Z,73.28
2023-04-30T21:23:32.273Z,72.92
2023-04-30T21:25:59.402Z,72.70
2023-04-30T21:28:26.395Z,72.85
2023-04-30T21:30:53.660Z,73.08
2023-04-30T21:33:20.935Z,73.29
2023-04-30T21:36:06.695Z,72.50
2023-04-30T21:38:33.850Z,72.67
2023-04-30T21:41:00.818Z,72.19
2023-04-30T21:43:27.789Z,71.96
2023-04-30T21:45:54.720Z,72.36
2023-04-30T21:48:21.636Z,71.70
2023-04-30T21:50:49.776Z,71.93
2023-04-30T21:53:16.886Z,71.87
2023-04-30T21:55:43.821Z,71.19
2023-04-30T21:58:10.816Z,71.92
2023-04-30T22:00:37.652Z,71.14
2023-04-30T22:05:31.531Z,71.60
2023-04-30T22:07:58.501Z,71.17
2023-04-30T22:10:25.387Z,71.48
2023-04-30T22:12:52.257Z,70.45
2023-04-30T22:15:19.153Z,70.60
2023-04-30T22:17:46.177Z,70.82
2023-04-30T22:20:13.436Z,70.11
2023-04-30T22:22:40.326Z,69.97
2023-04-30T22:25:09.901Z,70.44
2023-04-30T22:27:36.933Z,69.11
2023-04-30T22:30:04.113Z,68.84
2023-04-30T22:32:31.051Z,69.50
2023-04-30T22:35:00.369Z,69.03
2023-04-30T22:37:27.213Z,68.77
2023-04-30T22:39:54.178Z,68.72
2023-04-30T22:42:21.279Z,69.05
2023-04-30T22:44:48.202Z,69.28
2023-04-30T22:47:18.967Z,68.91
2023-04-30T22:49:46.154Z,68.75
2023-04-30T22:52:13.039Z,69.01
2023-04-30T22:54:41.296Z,68.73
2023-04-30T22:57:08.195Z,69.28
2023-04-30T22:59:35.020Z,68.68
2023-04-30T23:02:04.609Z,68.77
2023-04-30T23:04:32.162Z,68.48
2023-04-30T23:06:59.345Z,68.69
2023-04-30T23:09:26.420Z,68.65
2023-04-30T23:11:53.413Z,68.22
2023-04-30T23:14:21.278Z,68.54
2023-04-30T23:16:52.747Z,68.42
2023-04-30T23:19:19.835Z,68.89
2023-04-30T23:21:46.736Z,68.00
2023-04-30T23:24:14.886Z,68.56
2023-04-30T23:26:41.809Z,69.28
2023-04-30T23:29:08.826Z,68.45
2023-04-30T23:31:35.896Z,68.47
2023-04-30T23:34:02.963Z,68.28
2023-04-30T23:36:32.552Z,68.22
2023-04-30T23:38:59.543Z,67.31
2023-04-30T23:41:26.459Z,67.20
2023-04-30T23:43:53.491Z,68.41
2023-04-30T23:46:20.358Z,67.97
2023-04-30T23:48:54.619Z,68.66
2023-04-30T23:51:21.852Z,68.30
2023-04-30T23:53:48.841Z,68.06
2023-04-30T23:56:16.424Z,67.46
2023-04-30T23:58:45.739Z,67.82
